Time;durP1;ratioP1;P1;durP2;ratioP2;P2;SDS_P1;SDS_P2;PMS_P1;PMS_P2;Temp;Humidity;BMP_temperature;BMP_pressure;BME280_temperature;BME280_humidity;BME280_pressure;Samples;Min_cycle;Max_cycle;Signal;HPM_P1;HPM_P2
2021/05/27 00:01:57;;;;;;;8.40;4.40;;;;;;;11.57;70.87;99836.25;4941788;28;20852;-79
2021/05/27 00:04:24;;;;;;;7.50;4.03;;;;;;;11.88;70.08;99844.72;4955407;28;20098;-79
2021/05/27 00:06:51;;;;;;;8.18;3.88;;;;;;;11.86;69.60;99835.13;4943499;28;20138;-78
2021/05/27 00:09:18;;;;;;;10.13;4.50;;;;;;;11.73;70.68;99835.28;4929933;28;20073;-79
2021/05/27 00:11:46;;;;;;;5.82;4.57;;;;;;;11.89;69.97;99832.50;4944462;28;20043;-79
2021/05/27 00:14:13;;;;;;;6.00;4.65;;;;;;;11.86;70.59;99837.75;4928280;28;20063;-79
2021/05/27 00:16:40;;;;;;;9.65;4.20;;;;;;;11.80;70.21;99842.16;5008632;28;20509;-78
2021/05/27 00:19:07;;;;;;;11.20;4.68;;;;;;;11.81;70.46;99850.88;5024040;28;20046;-79
2021/05/27 00:21:34;;;;;;;7.97;5.25;;;;;;;11.88;70.00;99852.59;5014697;28;20073;-79
2021/05/27 00:24:01;;;;;;;8.10;5.28;;;;;;;12.03;69.43;99860.28;5024583;28;20120;-79
2021/05/27 00:26:28;;;;;;;7.70;5.40;;;;;;;12.01;69.48;99858.53;4998103;28;20052;-79
2021/05/27 00:28:56;;;;;;;9.02;5.43;;;;;;;11.80;69.87;99850.03;5022208;28;20129;-80
2021/05/27 00:31:23;;;;;;;8.50;5.47;;;;;;;11.69;70.88;99859.72;5026447;28;20049;-80
2021/05/27 00:33:50;;;;;;;7.10;5.50;;;;;;;11.61;70.95;99868.50;5019626;28;20041;-79
2021/05/27 00:36:18;;;;;;;8.30;5.90;;;;;;;11.51;71.58;99866.88;5023158;28;20059;-79
2021/05/27 00:38:45;;;;;;;9.60;5.85;;;;;;;11.82;71.03;99872.69;5017089;28;20092;-80
2021/05/27 00:41:13;;;;;;;9.52;5.72;;;;;;;11.68;71.22;99873.69;5006206;28;20416;-79
2021/05/27 00:43:40;;;;;;;9.02;6.68;;;;;;;11.71;71.51;99868.41;5020558;28;20136;-79
2021/05/27 00:46:08;;;;;;;8.10;6.60;;;;;;;11.44;71.40;99868.66;5021932;28;20045;-79
2021/05/27 00:51:20;;;;;;;9.38;6.55;;;;;;;11.69;71.81;99874.53;5026602;28;20053;-79
2021/05/27 00:53:48;;;;;;;8.90;6.63;;;;;;;11.76;71.58;99874.50;5025573;28;20049;-79
2021/05/27 00:56:15;;;;;;;10.73;6.40;;;;;;;11.99;70.60;99882.13;5021959;28;20045;-79
2021/05/27 00:58:43;;;;;;;12.65;6.78;;;;;;;11.94;69.92;99881.28;5037284;28;20500;-79
2021/05/27 01:01:10;;;;;;;11.73;7.00;;;;;;;12.13;70.25;99885.47;5024951;28;20460;-79
2021/05/27 01:03:39;;;;;;;10.70;7.20;;;;;;;12.03;70.12;99876.00;5025219;28;20061;-79
2021/05/27 01:06:06;;;;;;;12.90;7.22;;;;;;;12.22;69.43;99880.16;5020990;28;20380;-79
2021/05/27 01:08:33;;;;;;;11.20;6.78;;;;;;;12.21;69.16;99888.00;5027986;28;20381;-79
2021/05/27 01:11:01;;;;;;;11.13;8.05;;;;;;;11.71;70.52;99880.63;5008736;28;20049;-79
2021/05/27 01:13:28;;;;;;;11.55;9.38;;;;;;;12.18;69.62;99891.50;5004226;28;20041;-79
2021/05/27 01:15:55;;;;;;;13.00;9.57;;;;;;;11.83;70.08;99887.53;5024995;28;20092;-80
2021/05/27 01:18:26;;;;;;;11.35;8.55;;;;;;;12.07;69.63;99890.78;5016325;28;20455;-79
2021/05/27 01:20:57;;;;;;;14.48;9.35;;;;;;;12.05;69.75;99891.66;5023099;28;20053;-80
2021/05/27 01:23:26;;;;;;;10.40;8.85;;;;;;;11.83;70.17;99892.78;5025315;28;20396;-79
2021/05/27 01:25:56;;;;;;;14.85;9.80;;;;;;;11.77;70.32;99896.31;5025310;28;20052;-79
2021/05/27 01:28:25;;;;;;;17.98;11.20;;;;;;;11.49;71.34;99900.88;5005549;28;20095;-79
2021/05/27 01:30:52;;;;;;;13.18;10.18;;;;;;;11.50;71.44;99901.75;5033346;28;20064;-79
2021/05/27 01:33:21;;;;;;;14.43;10.38;;;;;;;11.50;71.32;99893.91;5025170;28;20045;-79
2021/05/27 01:35:48;;;;;;;16.42;11.55;;;;;;;11.46;72.01;99905.28;5011620;28;20045;-79
2021/05/27 01:38:21;;;;;;;16.95;10.98;;;;;;;11.28;72.47;99901.03;5016496;28;20077;-79
2021/05/27 01:40:49;;;;;;;15.52;11.77;;;;;;;11.55;70.90;99906.06;5021140;28;20187;-78
2021/05/27 01:43:19;;;;;;;18.40;12.07;;;;;;;11.75;70.52;99896.31;5001783;28;20567;-80
2021/05/27 01:45:48;;;;;;;18.80;13.40;;;;;;;11.55;71.32;99908.69;5025724;28;20500;-79
2021/05/27 01:48:15;;;;;;;17.95;12.50;;;;;;;11.49;71.46;99913.09;5015792;28;20057;-79
2021/05/27 01:50:45;;;;;;;19.65;13.73;;;;;;;11.36;72.26;99905.34;5037665;28;20075;-80
2021/05/27 01:53:13;;;;;;;15.82;12.05;;;;;;;11.67;71.04;99902.47;5008132;28;20064;-80
2021/05/27 01:55:48;;;;;;;15.98;12.95;;;;;;;11.46;72.41;99907.88;5019934;28;20112;-80
2021/05/27 01:58:16;;;;;;;19.33;13.10;;;;;;;11.34;72.18;99907.09;5008402;28;20409;-79
2021/05/27 02:00:44;;;;;;;18.27;13.70;;;;;;;11.77;70.98;99905.03;5005249;28;20053;-79
2021/05/27 02:03:11;;;;;;;17.17;12.55;;;;;;;11.43;71.52;99907.88;5000680;28;20490;-77
2021/05/27 02:05:38;;;;;;;16.30;11.77;;;;;;;11.72;70.22;99916.38;5005053;28;20046;-78
2021/05/27 02:08:05;;;;;;;18.27;13.52;;;;;;;12.06;69.16;99910.00;4990632;28;20481;-78
2021/05/27 02:10:32;;;;;;;20.30;13.63;;;;;;;11.89;69.66;99911.91;5008571;28;20490;-78
2021/05/27 02:13:00;;;;;;;19.63;13.10;;;;;;;12.10;68.75;99911.69;5016885;28;20053;-79
2021/05/27 02:15:27;;;;;;;19.95;12.60;;;;;;;12.54;67.58;99916.44;5006385;28;20054;-78
2021/05/27 02:17:54;;;;;;;19.55;12.80;;;;;;;12.78;67.05;99914.41;5009078;28;20065;-79
2021/05/27 02:20:21;;;;;;;21.52;14.38;;;;;;;12.85;66.50;99916.06;5006904;28;20050;-78
2021/05/27 02:22:49;;;;;;;23.33;13.68;;;;;;;12.98;66.21;99915.88;5006720;28;20050;-78
2021/05/27 02:25:16;;;;;;;19.83;12.98;;;;;;;12.57;67.07;99910.28;5002311;28;20088;-79
2021/05/27 02:27:43;;;;;;;20.80;13.60;;;;;;;12.88;66.30;99914.28;5006759;28;20050;-78
2021/05/27 02:30:11;;;;;;;19.80;12.40;;;;;;;12.85;66.47;99913.47;4987013;28;20550;-78
2021/05/27 02:32:39;;;;;;;16.17;12.15;;;;;;;12.76;66.58;99911.78;5009362;28;20041;-78
2021/05/27 02:35:07;;;;;;;18.35;12.32;;;;;;;12.61;66.99;99914.63;5018337;28;20061;-80
2021/05/27 02:37:34;;;;;;;15.68;11.85;;;;;;;12.27;68.89;99918.53;5005792;28;20501;-79
2021/05/27 02:40:03;;;;;;;19.00;11.82;;;;;;;12.83;66.63;99923.94;5013318;28;20132;-79
2021/05/27 02:42:30;;;;;;;14.75;11.05;;;;;;;12.99;66.02;99925.50;5003093;28;20053;-79
2021/05/27 02:44:57;;;;;;;14.45;11.45;;;;;;;12.73;66.38;99924.09;5011838;28;20045;-78
2021/05/27 02:47:25;;;;;;;19.65;11.75;;;;;;;12.54;67.09;99920.81;5004355;28;20070;-80
2021/05/27 02:49:52;;;;;;;16.77;12.07;;;;;;;11.68;69.49;99922.53;5008366;28;20058;-78
2021/05/27 02:52:19;;;;;;;19.73;12.43;;;;;;;11.85;69.15;99914.53;5006404;28;20042;-78
2021/05/27 02:54:46;;;;;;;17.92;11.93;;;;;;;12.02;68.65;99925.75;5005741;28;20084;-79
2021/05/27 02:57:13;;;;;;;17.17;12.02;;;;;;;11.92;68.90;99919.72;5003904;28;20057;-78
2021/05/27 02:59:40;;;;;;;14.27;10.82;;;;;;;11.79;69.25;99920.72;5006584;28;20084;-78
2021/05/27 03:02:07;;;;;;;13.77;10.07;;;;;;;12.01;68.30;99924.88;5007335;28;20092;-79
2021/05/27 03:04:34;;;;;;;14.43;10.35;;;;;;;11.76;68.95;99928.59;5022043;28;20042;-78
2021/05/27 03:07:02;;;;;;;13.60;10.65;;;;;;;11.99;68.17;99934.47;5005609;28;20049;-79
2021/05/27 03:09:29;;;;;;;17.10;11.10;;;;;;;12.03;67.62;99943.19;5008209;28;20048;-79
2021/05/27 03:11:57;;;;;;;18.80;10.23;;;;;;;11.96;67.79;99945.00;5008951;28;20054;-78
2021/05/27 03:14:24;;;;;;;15.07;10.90;;;;;;;11.77;68.02;99939.06;5002008;28;20408;-78
2021/05/27 03:16:51;;;;;;;16.98;11.45;;;;;;;12.07;67.43;99950.13;5004193;28;20050;-79
2021/05/27 03:19:18;;;;;;;17.83;12.02;;;;;;;11.90;67.12;99952.91;5010517;28;20072;-79
2021/05/27 03:21:47;;;;;;;17.13;10.65;;;;;;;11.70;67.95;99957.41;5006869;28;20238;-79
2021/05/27 03:24:15;;;;;;;16.85;9.98;;;;;;;11.97;67.54;99958.97;5008940;28;20037;-78
2021/05/27 03:26:42;;;;;;;11.82;9.82;;;;;;;12.21;66.37;99962.22;5006824;28;20085;-78
2021/05/27 03:29:10;;;;;;;16.20;9.73;;;;;;;12.17;66.26;99960.53;5005790;28;20077;-79
2021/05/27 03:31:37;;;;;;;11.77;8.85;;;;;;;11.98;66.52;99963.31;5011577;28;20051;-79
2021/05/27 03:34:05;;;;;;;14.38;9.55;;;;;;;12.01;66.80;99965.91;5008408;28;20111;-78
2021/05/27 03:36:32;;;;;;;13.77;10.18;;;;;;;11.90;66.90;99965.13;5008891;28;20103;-78
2021/05/27 03:38:59;;;;;;;13.43;9.68;;;;;;;11.89;66.97;99956.41;5003785;28;20041;-78
2021/05/27 03:41:26;;;;;;;13.70;9.95;;;;;;;11.42;68.12;99966.31;5009333;28;20057;-78
2021/05/27 03:43:53;;;;;;;18.95;11.20;;;;;;;11.52;67.51;99962.75;4998031;28;20041;-79
2021/05/27 03:46:20;;;;;;;19.42;11.23;;;;;;;11.63;66.93;99968.81;5030711;28;20108;-78
2021/05/27 03:48:47;;;;;;;24.83;14.50;;;;;;;11.23;68.64;99968.19;4995715;28;20085;-79
2021/05/27 03:51:15;;;;;;;16.75;12.77;;;;;;;11.46;67.64;99963.69;5005438;28;20054;-80
2021/05/27 03:53:42;;;;;;;32.45;17.48;;;;;;;11.20;68.03;99978.66;5039578;28;20049;-78
2021/05/27 03:56:09;;;;;;;26.33;14.38;;;;;;;11.41;67.74;99980.31;5035721;28;20689;-79
2021/05/27 04:01:23;;;;;;;25.77;13.52;;;;;;;11.21;68.19;99978.66;5035213;28;20113;-79
2021/05/27 04:09:22;;;;;;;16.35;12.35;;;;;;;11.39;67.83;99982.91;5032402;28;20054;-79
2021/05/27 04:11:49;;;;;;;18.92;13.50;;;;;;;11.79;68.60;99968.72;5038185;28;20105;-79
2021/05/27 04:14:17;;;;;;;19.20;13.77;;;;;;;12.49;68.39;99975.03;5038191;28;20065;-79
2021/05/27 04:16:45;;;;;;;20.42;13.13;;;;;;;12.97;65.21;99969.22;5037539;28;20053;-78
2021/05/27 04:19:13;;;;;;;17.27;12.02;;;;;;;13.57;62.31;99976.31;5038626;28;20049;-79
2021/05/27 04:21:40;;;;;;;12.82;9.00;;;;;;;14.01;60.81;99972.94;5025442;28;20045;-79
2021/05/27 04:24:08;;;;;;;10.77;7.75;;;;;;;14.50;58.48;99971.22;5020563;28;20041;-79
2021/05/27 04:26:35;;;;;;;8.68;7.03;;;;;;;15.58;55.66;99979.50;5034547;28;20041;-79
2021/05/27 04:29:03;;;;;;;12.77;6.93;;;;;;;16.54;52.19;99980.59;5018686;28;20048;-79
2021/05/27 04:31:30;;;;;;;12.38;6.72;;;;;;;17.49;48.06;99986.66;5022641;28;20045;-79
2021/05/27 04:33:57;;;;;;;13.23;5.50;;;;;;;18.05;46.75;99990.16;5030653;28;20404;-78
2021/05/27 04:36:26;;;;;;;8.88;5.45;;;;;;;18.62;44.51;99989.97;5022849;28;20048;-78
2021/05/27 04:38:54;;;;;;;6.88;4.60;;;;;;;18.37;44.57;100000.50;5033825;28;20052;-78
2021/05/27 04:41:22;;;;;;;9.93;4.90;;;;;;;17.84;45.16;100002.31;5033242;28;21527;-79
2021/05/27 04:43:55;;;;;;;4.68;4.05;;;;;;;17.70;45.68;100007.13;5030455;28;20071;-78
2021/05/27 04:46:22;;;;;;;7.22;5.10;;;;;;;18.07;45.77;100002.44;5034249;28;20053;-78
2021/05/27 04:48:49;;;;;;;6.30;4.80;;;;;;;18.68;44.05;100008.28;5026279;28;20054;-78
2021/05/27 04:51:16;;;;;;;8.05;4.28;;;;;;;19.92;41.77;100019.47;5025079;28;20041;-79
2021/05/27 04:53:43;;;;;;;7.97;4.00;;;;;;;21.20;39.20;100013.97;5031051;28;20495;-80
2021/05/27 04:56:10;;;;;;;4.18;3.75;;;;;;;22.51;37.07;100012.03;5023626;28;20065;-80
2021/05/27 04:58:37;;;;;;;4.82;3.45;;;;;;;23.55;34.67;100017.22;5033284;28;20117;-79
2021/05/27 05:01:05;;;;;;;4.70;3.30;;;;;;;24.23;33.23;100023.97;5034686;28;20449;-80
2021/05/27 05:03:32;;;;;;;5.50;3.97;;;;;;;23.39;33.12;100023.34;5044504;28;20044;-79
2021/05/27 05:05:59;;;;;;;4.22;3.47;;;;;;;24.51;32.38;100029.41;5016614;28;20408;-79
2021/05/27 05:08:26;;;;;;;5.32;3.40;;;;;;;25.50;31.04;100036.72;5030934;28;20403;-80
2021/05/27 05:10:53;;;;;;;6.30;2.83;;;;;;;25.93;30.75;100033.06;5024259;28;20559;-80
2021/05/27 05:13:20;;;;;;;3.88;2.75;;;;;;;26.60;29.67;100036.63;5030693;28;20053;-80
2021/05/27 05:15:49;;;;;;;4.22;2.47;;;;;;;27.51;28.40;100042.81;5015215;28;20045;-80
2021/05/27 05:18:16;;;;;;;6.47;2.92;;;;;;;28.49;27.06;100053.47;5034782;28;20143;-79
2021/05/27 05:20:50;;;;;;;10.40;3.60;;;;;;;29.35;25.50;100059.38;5004999;28;20854;-80
2021/05/27 05:23:19;;;;;;;4.32;2.70;;;;;;;29.42;24.62;100063.25;5034809;28;20042;-80
2021/05/27 05:25:46;;;;;;;4.97;2.10;;;;;;;29.91;24.07;100062.91;5023037;28;20069;-81
2021/05/27 05:28:14;;;;;;;5.95;2.05;;;;;;;30.41;23.18;100068.66;5031173;28;20117;-79
2021/05/27 05:30:45;;;;;;;4.90;2.25;;;;;;;30.29;23.20;100070.53;5034447;28;20045;-80
2021/05/27 05:33:12;;;;;;;4.22;2.65;;;;;;;29.80;23.92;100065.56;5032344;28;20041;-80
2021/05/27 05:35:39;;;;;;;3.95;2.50;;;;;;;28.55;25.06;100075.34;5035201;28;20057;-80
2021/05/27 05:38:07;;;;;;;3.35;2.33;;;;;;;28.50;25.86;100076.66;5027400;28;20096;-79
2021/05/27 05:40:36;;;;;;;3.35;2.30;;;;;;;30.25;23.31;100077.16;5029447;28;20046;-81
2021/05/27 05:43:04;;;;;;;3.85;2.22;;;;;;;29.50;24.16;100068.88;5029225;28;20056;-79
2021/05/27 05:45:31;;;;;;;5.35;3.20;;;;;;;30.22;24.75;100077.41;5029863;28;20063;-79
2021/05/27 05:47:59;;;;;;;5.40;2.63;;;;;;;31.36;22.92;100082.06;5007010;28;20045;-80
2021/05/27 05:50:48;;;;;;;4.47;1.98;;;;;;;30.93;22.46;100078.63;5026540;28;20057;-81
2021/05/27 05:53:22;;;;;;;5.45;2.65;;;;;;;32.24;20.59;100089.50;5017971;28;20053;-80
2021/05/27 05:55:52;;;;;;;3.50;2.30;;;;;;;32.88;19.99;100093.44;5023961;28;20532;-80
2021/05/27 05:58:27;;;;;;;3.67;1.80;;;;;;;33.94;20.04;100100.44;5011052;28;20057;-80
2021/05/27 06:01:00;;;;;;;3.47;2.58;;;;;;;32.42;21.69;100101.38;5001073;28;20102;-80
2021/05/27 06:03:32;;;;;;;3.75;2.08;;;;;;;32.11;21.20;100095.19;4969916;28;20052;-79
2021/05/27 06:06:03;;;;;;;3.92;2.20;;;;;;;32.85;20.88;100104.53;4984588;28;20041;-80
2021/05/27 06:08:33;;;;;;;6.03;2.25;;;;;;;33.44;19.71;100108.03;5009432;28;20037;-80
2021/05/27 06:11:03;;;;;;;4.45;2.50;;;;;;;34.92;18.59;100105.94;5010561;28;20144;-81
2021/05/27 06:13:34;;;;;;;4.60;2.47;;;;;;;34.68;18.32;100117.44;4977954;28;20138;-81
2021/05/27 06:16:15;;;;;;;3.70;2.28;;;;;;;34.33;19.10;100118.25;4973046;28;20049;-80
2021/05/27 06:18:43;;;;;;;5.43;3.13;;;;;;;31.42;20.57;100111.19;5025464;28;20679;-80
2021/05/27 06:21:15;;;;;;;5.88;3.20;;;;;;;31.32;21.61;100117.56;5007134;28;20056;-79
2021/05/27 06:23:47;;;;;;;6.07;3.58;;;;;;;32.50;20.23;100125.88;5002770;28;20095;-80
2021/05/27 06:26:20;;;;;;;5.25;3.35;;;;;;;31.76;21.57;100125.34;5015874;28;20053;-79
2021/05/27 06:28:47;;;;;;;4.60;3.03;;;;;;;32.74;20.64;100123.66;5012257;28;20052;-79
2021/05/27 06:31:15;;;;;;;4.20;2.88;;;;;;;33.30;20.27;100133.72;4986805;28;20045;-78
2021/05/27 06:33:51;;;;;;;4.35;3.10;;;;;;;33.42;19.80;100138.00;5015538;28;20042;-80
2021/05/27 06:36:18;;;;;;;4.30;2.63;;;;;;;35.29;18.48;100144.66;5023750;28;20045;-80
2021/05/27 06:38:46;;;;;;;4.10;2.67;;;;;;;35.97;17.84;100144.75;4998389;28;20049;-80
2021/05/27 06:41:21;;;;;;;4.05;3.28;;;;;;;35.44;17.56;100140.31;5008073;28;20152;-80
2021/05/27 06:43:54;;;;;;;6.13;2.42;;;;;;;36.39;17.03;100147.47;5013210;28;20049;-79
2021/05/27 06:46:27;;;;;;;5.82;2.10;;;;;;;37.34;16.45;100151.53;5011195;28;20073;-80
2021/05/27 06:48:56;;;;;;;3.42;2.10;;;;;;;36.88;16.07;100151.19;5027544;28;20045;-80
2021/05/27 06:51:35;;;;;;;2.45;2.05;;;;;;;36.65;15.80;100145.53;4992182;28;20128;-79
2021/05/27 06:54:02;;;;;;;3.38;1.65;;;;;;;38.02;15.53;100153.81;5011827;28;20050;-80
2021/05/27 06:56:30;;;;;;;2.00;1.42;;;;;;;37.61;15.38;100156.63;4955462;28;20056;-79
2021/05/27 06:59:03;;;;;;;2.00;1.80;;;;;;;38.42;14.86;100151.75;5008196;28;20125;-79
2021/05/27 07:01:31;;;;;;;3.40;1.40;;;;;;;39.37;13.81;100156.94;4982091;28;20043;-81
2021/05/27 07:04:02;;;;;;;2.35;1.30;;;;;;;38.98;13.77;100154.34;4981276;28;20214;-80
2021/05/27 07:06:30;;;;;;;4.78;1.63;;;;;;;38.60;13.88;100154.25;4998763;28;20120;-79
2021/05/27 07:08:58;;;;;;;2.53;1.10;;;;;;;36.55;15.66;100149.38;4978085;28;20062;-80
2021/05/27 07:11:28;;;;;;;5.82;1.40;;;;;;;38.40;14.41;100158.41;4994956;28;20054;-79
2021/05/27 07:13:55;;;;;;;3.92;2.08;;;;;;;38.59;14.16;100171.66;4980569;28;20063;-78
2021/05/27 07:16:23;;;;;;;5.60;1.65;;;;;;;36.67;15.43;100156.25;5002592;28;20062;-78
2021/05/27 07:18:53;;;;;;;3.07;1.80;;;;;;;36.65;14.76;100155.56;5008944;28;20061;-78
2021/05/27 07:21:20;;;;;;;4.50;1.60;;;;;;;34.41;17.93;100150.03;5000496;28;20275;-79
2021/05/27 07:23:48;;;;;;;3.22;1.45;;;;;;;36.85;15.73;100158.81;4988561;28;20048;-78
2021/05/27 07:26:58;;;;;;;3.33;1.42;;;;;;;36.97;15.29;100158.34;4954783;28;20057;-84
2021/05/27 07:33:11;;;;;;;3.67;1.63;;;;;;;34.78;17.80;100149.94;4875224;28;20485;-81
2021/05/27 07:35:54;;;;;;;3.90;1.67;;;;;;;35.67;16.54;100150.69;4975914;28;20113;-83
2021/05/27 07:42:21;;;;;;;3.15;1.80;;;;;;;34.12;17.98;100161.88;4942179;28;20190;-82
2021/05/27 07:45:41;;;;;;;;;;;;;;;;;;;;;
2021/05/27 07:48:55;;;;;;;3.83;1.90;;;;;;;33.31;19.23;100159.81;4879734;29;20188;-81
2021/05/27 07:51:55;;;;;;;;;;;;;;;;;;;;;
2021/05/27 07:59:32;;;;;;;2.63;2.00;;;;;;;35.03;17.76;100161.88;4733302;29;20118;-83
2021/05/27 08:08:09;;;;;;;3.75;1.95;;;;;;;35.70;15.87;100188.44;4762281;29;20062;-86
